Time;durP1;ratioP1;P1;durP2;ratioP2;P2;SDS_P1;SDS_P2;PMS_P1;PMS_P2;Temp;Humidity;BMP_temperature;BMP_pressure;BME280_temperature;BME280_humidity;BME280_pressure;Samples;Min_cycle;Max_cycle;Signal;HPM_P1;HPM_P2
2023/06/04 00:00:51;;;;;;;5.07;4.63;;;10.20;99.90;;;;;;5054604;28;20183;-72
2023/06/04 00:03:16;;;;;;;5.20;4.70;;;10.20;99.90;;;;;;5055368;28;20428;-72
2023/06/04 00:05:42;;;;;;;5.10;4.70;;;10.20;99.90;;;;;;5056644;28;20540;-69
2023/06/04 00:08:07;;;;;;;5.40;4.70;;;10.20;99.90;;;;;;5074271;28;20276;-68
2023/06/04 00:10:33;;;;;;;10.13;5.70;;;10.20;99.90;;;;;;5073558;28;20174;-73
2023/06/04 00:13:00;;;;;;;5.30;4.80;;;10.10;99.90;;;;;;5075291;28;20682;-68
2023/06/04 00:15:25;;;;;;;5.90;4.63;;;10.00;99.90;;;;;;5063859;28;20171;-71
2023/06/04 00:17:51;;;;;;;4.03;3.67;;;9.90;99.90;;;;;;5055145;28;20457;-68
2023/06/04 00:20:18;;;;;;;6.17;5.03;;;9.80;99.90;;;;;;5053011;28;20382;-68
2023/06/04 00:22:43;;;;;;;5.43;5.03;;;9.80;99.90;;;;;;5055007;28;20195;-72
2023/06/04 00:25:10;;;;;;;9.13;5.57;;;9.70;99.90;;;;;;5069657;28;20517;-68
2023/06/04 00:27:36;;;;;;;5.20;4.70;;;9.70;99.90;;;;;;5052978;28;20186;-69
2023/06/04 00:30:03;;;;;;;5.50;5.00;;;9.70;99.90;;;;;;5072805;28;20924;-68
2023/06/04 00:32:29;;;;;;;5.57;5.10;;;9.70;99.90;;;;;;5074480;28;20399;-72
2023/06/04 00:34:57;;;;;;;5.07;4.67;;;9.80;99.90;;;;;;5074891;28;20389;-72
2023/06/04 00:37:27;;;;;;;8.87;5.30;;;9.70;99.90;;;;;;5072720;28;20173;-72
2023/06/04 00:39:53;;;;;;;5.10;4.23;;;9.80;99.90;;;;;;5074160;28;20938;-73
2023/06/04 00:42:18;;;;;;;4.77;4.37;;;9.80;99.90;;;;;;5072812;28;20506;-69
2023/06/04 00:44:45;;;;;;;4.47;4.07;;;9.80;99.90;;;;;;5074110;28;20182;-72
2023/06/04 00:47:15;;;;;;;5.67;5.10;;;9.70;99.90;;;;;;5074771;28;20162;-72
2023/06/04 00:49:41;;;;;;;5.73;4.03;;;9.70;99.90;;;;;;5074605;28;20469;-68
2023/06/04 00:52:09;;;;;;;5.37;4.87;;;9.60;99.90;;;;;;5071443;28;20454;-68
2023/06/04 00:54:36;;;;;;;6.60;5.27;;;9.60;99.90;;;;;;5067823;28;20437;-69
2023/06/04 00:57:02;;;;;;;4.93;4.60;;;9.60;99.90;;;;;;5054627;28;20393;-72
2023/06/04 00:59:34;;;;;;;8.70;5.47;;;9.60;99.90;;;;;;5054334;28;20412;-68
2023/06/04 01:02:12;;;;;;;4.97;4.50;;;9.60;99.90;;;;;;5052210;28;20650;-72
2023/06/04 01:05:08;;;;;;;5.00;4.60;;;9.60;99.90;;;;;;5054013;28;20439;-73
2023/06/04 01:07:36;;;;;;;4.73;4.33;;;9.50;99.90;;;;;;5056688;28;20906;-72
2023/06/04 01:10:02;;;;;;;4.70;4.20;;;9.50;99.90;;;;;;5072101;28;20446;-67
2023/06/04 01:12:28;;;;;;;6.10;4.73;;;9.50;99.90;;;;;;5073487;28;20400;-68
2023/06/04 01:14:54;;;;;;;6.03;5.37;;;9.50;99.90;;;;;;5074019;28;20415;-68
2023/06/04 01:17:36;;;;;;;5.07;4.57;;;9.50;99.90;;;;;;5073977;28;20190;-72
2023/06/04 01:20:14;;;;;;;4.37;4.07;;;9.50;99.90;;;;;;5072424;28;20207;-72
2023/06/04 01:22:51;;;;;;;5.37;4.83;;;9.50;99.90;;;;;;5073420;28;20390;-72
2023/06/04 01:25:38;;;;;;;5.70;4.60;;;9.50;99.90;;;;;;5073874;28;20392;-68
2023/06/04 01:28:06;;;;;;;7.20;4.80;;;9.50;99.90;;;;;;5072963;28;20451;-73
2023/06/04 01:30:42;;;;;;;5.03;4.60;;;9.50;99.90;;;;;;5072831;28;20403;-69
2023/06/04 01:33:13;;;;;;;6.43;4.43;;;9.50;99.90;;;;;;5073793;28;20481;-72
2023/06/04 01:35:39;;;;;;;6.07;5.47;;;9.40;99.90;;;;;;5071874;28;20431;-72
2023/06/04 01:38:05;;;;;;;5.13;4.63;;;9.40;99.90;;;;;;5073486;28;20897;-73
2023/06/04 01:40:31;;;;;;;6.40;4.37;;;9.40;99.90;;;;;;5071766;28;20400;-69
2023/06/04 01:42:58;;;;;;;8.50;4.80;;;9.40;99.90;;;;;;5072212;28;20527;-67
2023/06/04 01:45:25;;;;;;;9.67;4.87;;;9.40;99.90;;;;;;5073390;28;20468;-67
2023/06/04 01:47:52;;;;;;;5.23;4.83;;;9.30;99.90;;;;;;5073605;28;20440;-68
2023/06/04 01:50:18;;;;;;;4.87;4.20;;;9.30;99.90;;;;;;5070510;28;20436;-72
2023/06/04 01:52:46;;;;;;;6.90;4.43;;;9.30;99.90;;;;;;5072178;28;20443;-73
2023/06/04 01:55:14;;;;;;;10.97;5.33;;;9.30;99.90;;;;;;5072940;28;20177;-70
2023/06/04 01:57:44;;;;;;;5.17;4.57;;;9.30;99.90;;;;;;5073313;28;20412;-71
2023/06/04 02:00:11;;;;;;;5.47;4.60;;;9.30;99.90;;;;;;5072055;28;20391;-72
2023/06/04 02:02:38;;;;;;;5.37;4.30;;;9.30;99.90;;;;;;5070819;28;20923;-68
2023/06/04 02:05:08;;;;;;;4.50;3.83;;;9.20;99.90;;;;;;5056415;28;20420;-68
2023/06/04 02:07:35;;;;;;;5.70;4.40;;;9.20;99.90;;;;;;5073102;28;20936;-67
2023/06/04 02:10:01;;;;;;;5.17;4.70;;;9.10;99.90;;;;;;5062399;28;20911;-73
2023/06/04 02:12:26;;;;;;;4.57;4.10;;;9.10;99.90;;;;;;5052410;28;20401;-72
2023/06/04 02:14:52;;;;;;;6.67;4.40;;;9.10;99.90;;;;;;5051945;28;20413;-68
2023/06/04 02:17:18;;;;;;;6.70;4.23;;;9.10;99.90;;;;;;5052617;28;20166;-68
2023/06/04 02:19:44;;;;;;;4.90;4.47;;;9.00;99.90;;;;;;5053287;28;20255;-68
2023/06/04 02:22:13;;;;;;;7.00;5.17;;;9.00;99.90;;;;;;5052063;28;20630;-68
2023/06/04 02:24:42;;;;;;;4.77;4.00;;;9.00;99.90;;;;;;5052800;28;20424;-73
2023/06/04 02:27:08;;;;;;;4.23;3.80;;;9.00;99.90;;;;;;5053057;28;20409;-73
2023/06/04 02:29:35;;;;;;;5.17;4.67;;;9.00;99.90;;;;;;5052827;28;20459;-72
2023/06/04 02:32:01;;;;;;;4.77;4.37;;;8.90;99.90;;;;;;5051997;28;20392;-72
2023/06/04 02:34:27;;;;;;;8.43;6.13;;;8.90;99.90;;;;;;5064292;28;20496;-71
2023/06/04 02:36:52;;;;;;;5.53;4.70;;;8.90;99.90;;;;;;5072066;28;20949;-72
2023/06/04 02:39:19;;;;;;;7.57;4.77;;;8.90;99.90;;;;;;5072896;28;20161;-72
2023/06/04 02:41:45;;;;;;;7.20;4.97;;;8.90;99.90;;;;;;5072072;28;20204;-68
2023/06/04 02:44:12;;;;;;;4.77;4.40;;;8.80;99.90;;;;;;5071136;28;20862;-67
2023/06/04 02:46:40;;;;;;;6.07;4.73;;;8.80;99.90;;;;;;5072082;28;20439;-72
2023/06/04 02:49:06;;;;;;;11.40;5.30;;;8.80;99.90;;;;;;5053101;28;20956;-73
2023/06/04 02:51:32;;;;;;;6.97;4.33;;;8.80;99.90;;;;;;5050504;28;20432;-72
2023/06/04 02:53:58;;;;;;;5.17;4.67;;;8.80;99.90;;;;;;5052098;28;20186;-72
2023/06/04 02:56:25;;;;;;;9.40;4.30;;;8.80;99.90;;;;;;5052861;28;20500;-67
2023/06/04 02:58:55;;;;;;;6.53;5.47;;;8.80;99.90;;;;;;5066223;28;20431;-68
2023/06/04 03:01:22;;;;;;;7.37;6.00;;;8.70;99.90;;;;;;5071675;28;20396;-68
2023/06/04 03:03:49;;;;;;;5.90;5.00;;;8.70;99.90;;;;;;5072313;28;20469;-72
2023/06/04 03:06:16;;;;;;;6.83;4.80;;;8.60;99.90;;;;;;5076450;28;20930;-72
2023/06/04 03:08:42;;;;;;;7.60;5.20;;;8.60;99.90;;;;;;5073516;28;20495;-67
2023/06/04 03:11:07;;;;;;;5.63;5.23;;;8.60;99.90;;;;;;5074897;28;20487;-68
2023/06/04 03:13:33;;;;;;;6.40;4.50;;;8.70;99.90;;;;;;5075247;28;20837;-67
2023/06/04 03:16:02;;;;;;;5.23;4.80;;;8.70;99.90;;;;;;5076116;28;20423;-72
2023/06/04 03:18:30;;;;;;;10.43;5.07;;;8.70;99.90;;;;;;5076407;28;20224;-67
2023/06/04 03:20:57;;;;;;;10.60;4.50;;;8.70;99.90;;;;;;5075386;28;20392;-73
2023/06/04 03:23:22;;;;;;;5.53;5.03;;;8.70;99.90;;;;;;5076000;28;20942;-72
2023/06/04 03:25:48;;;;;;;6.23;4.60;;;8.60;99.90;;;;;;5075453;28;20474;-73
2023/06/04 03:28:14;;;;;;;6.13;5.10;;;8.60;99.90;;;;;;5075787;28;20543;-70
2023/06/04 03:30:40;;;;;;;7.17;5.27;;;8.60;99.90;;;;;;5073039;28;20166;-69
2023/06/04 03:33:07;;;;;;;8.93;4.57;;;8.60;99.90;;;;;;5076037;28;20182;-68
2023/06/04 03:35:33;;;;;;;7.53;4.60;;;8.60;99.90;;;;;;5075892;28;20723;-73
2023/06/04 03:37:58;;;;;;;4.97;4.30;;;8.60;99.90;;;;;;5075868;28;20410;-68
2023/06/04 03:40:24;;;;;;;5.10;4.50;;;8.50;99.90;;;;;;5074268;28;21222;-71
2023/06/04 03:42:50;;;;;;;5.30;4.60;;;8.60;99.90;;;;;;5074684;28;20224;-67
2023/06/04 03:45:15;;;;;;;4.93;4.40;;;8.60;99.90;;;;;;5075334;28;20181;-70
2023/06/04 03:47:41;;;;;;;7.23;4.30;;;8.60;99.90;;;;;;5073802;28;20534;-72
2023/06/04 03:50:07;;;;;;;6.77;4.90;;;8.70;99.90;;;;;;5074815;28;20164;-74
2023/06/04 03:52:33;;;;;;;8.07;4.90;;;8.70;1.00;;;;;;5076039;28;20527;-68
2023/06/04 03:55:00;;;;;;;5.47;4.50;;;8.70;1.00;;;;;;5074894;28;20431;-68
2023/06/04 03:57:25;;;;;;;5.43;4.93;;;8.80;1.00;;;;;;5075551;28;20161;-72
2023/06/04 03:59:52;;;;;;;7.13;5.40;;;8.80;1.00;;;;;;5075026;28;20431;-73
2023/06/04 04:02:18;;;;;;;5.73;5.10;;;8.90;1.00;;;;;;5074941;28;20240;-73
2023/06/04 04:04:44;;;;;;;4.30;3.90;;;8.90;1.00;;;;;;5075332;28;20973;-68
2023/06/04 04:07:10;;;;;;;7.83;4.70;;;9.00;1.00;;;;;;5073515;28;20515;-68
2023/06/04 04:09:36;;;;;;;4.17;3.87;;;9.00;1.00;;;;;;5069546;28;20817;-73
2023/06/04 04:12:03;;;;;;;4.30;3.93;;;9.10;1.00;;;;;;5074430;28;20408;-67
2023/06/04 04:14:29;;;;;;;11.97;4.60;;;9.20;1.00;;;;;;5071926;28;20432;-72
2023/06/04 04:16:55;;;;;;;5.10;3.80;;;9.30;1.00;;;;;;5055125;28;20425;-72
2023/06/04 04:19:20;;;;;;;5.27;4.40;;;9.30;1.00;;;;;;5055224;28;20170;-68
2023/06/04 04:21:50;;;;;;;8.40;3.87;;;9.40;1.00;;;;;;5054120;28;20177;-68
2023/06/04 04:24:25;;;;;;;7.53;4.47;;;9.40;1.00;;;;;;5075043;28;20197;-73
2023/06/04 04:26:54;;;;;;;4.80;4.40;;;9.50;1.00;;;;;;5073579;28;20958;-73
2023/06/04 04:29:22;;;;;;;7.63;5.10;;;9.60;1.00;;;;;;5074659;28;20451;-68
2023/06/04 04:31:51;;;;;;;8.37;4.57;;;9.70;1.00;;;;;;5072786;28;20819;-69
2023/06/04 04:34:20;;;;;;;8.83;5.17;;;9.70;1.00;;;;;;5073762;28;20429;-68
2023/06/04 04:36:52;;;;;;;5.60;5.20;;;9.80;1.00;;;;;;5073286;28;20416;-73
2023/06/04 04:39:27;;;;;;;9.03;5.03;;;9.90;1.00;;;;;;5074051;28;20860;-68
2023/06/04 04:41:54;;;;;;;4.40;4.00;;;10.00;1.00;;;;;;5073774;28;20396;-69
2023/06/04 04:44:20;;;;;;;4.17;3.73;;;10.00;1.00;;;;;;5073717;28;20422;-67
2023/06/04 04:46:48;;;;;;;7.37;4.00;;;10.10;1.00;;;;;;5074583;28;20926;-68
2023/06/04 04:49:13;;;;;;;8.30;4.40;;;10.20;1.00;;;;;;5074586;28;20452;-73
2023/06/04 04:51:39;;;;;;;9.67;4.50;;;10.30;1.00;;;;;;5071192;28;20420;-72
2023/06/04 04:54:05;;;;;;;6.47;4.17;;;10.30;1.00;;;;;;5074300;28;20244;-68
2023/06/04 04:56:36;;;;;;;5.93;3.63;;;10.40;1.00;;;;;;5074680;28;20194;-71
2023/06/04 04:59:02;;;;;;;6.10;3.70;;;10.50;1.00;;;;;;5074197;28;20532;-73
2023/06/04 05:01:28;;;;;;;9.63;3.63;;;10.50;1.00;;;;;;5073269;28;20411;-68
2023/06/04 05:03:54;;;;;;;4.57;3.30;;;10.60;1.00;;;;;;5072819;28;20424;-72
2023/06/04 05:06:20;;;;;;;4.83;3.30;;;10.70;1.00;;;;;;5073268;28;20178;-73
2023/06/04 05:08:48;;;;;;;6.63;3.53;;;10.70;1.00;;;;;;5074115;28;20182;-73
2023/06/04 05:11:13;;;;;;;6.40;3.80;;;10.90;1.00;;;;;;5072046;28;20792;-73
2023/06/04 05:13:41;;;;;;;4.90;3.80;;;10.90;1.00;;;;;;5072851;28;20480;-73
2023/06/04 05:16:07;;;;;;;8.97;3.53;;;11.00;1.00;;;;;;5073339;28;20167;-73
2023/06/04 05:18:34;;;;;;;3.50;3.17;;;11.10;1.00;;;;;;5073969;28;20374;-74
2023/06/04 05:21:02;;;;;;;7.20;3.60;;;11.10;1.00;;;;;;5071023;28;20403;-72
2023/06/04 05:23:29;;;;;;;3.47;3.17;;;11.20;1.00;;;;;;5073724;28;20379;-73
2023/06/04 05:25:55;;;;;;;7.67;2.90;;;11.30;1.00;;;;;;5073889;28;20954;-70
2023/06/04 05:28:24;;;;;;;6.07;3.37;;;11.30;1.00;;;;;;5073248;28;20498;-70
2023/06/04 05:30:50;;;;;;;9.17;3.73;;;11.40;1.00;;;;;;5072613;28;20170;-68
2023/06/04 05:33:18;;;;;;;6.50;3.47;;;11.50;1.00;;;;;;5073648;28;20808;-72
2023/06/04 05:35:51;;;;;;;4.70;3.13;;;11.50;1.00;;;;;;5054087;28;20179;-68
2023/06/04 05:38:25;;;;;;;8.83;3.40;;;11.60;1.00;;;;;;5053609;28;20376;-66
2023/06/04 05:40:55;;;;;;;5.43;3.80;;;11.70;1.00;;;;;;5052186;28;20509;-68
2023/06/04 05:43:21;;;;;;;8.97;3.33;;;11.70;1.00;;;;;;5053471;28;20388;-65
2023/06/04 05:45:47;;;;;;;6.97;3.20;;;11.70;1.00;;;;;;5053695;28;20766;-65
2023/06/04 05:48:13;;;;;;;4.40;3.33;;;11.80;1.00;;;;;;5064292;28;20478;-68
2023/06/04 05:50:39;;;;;;;6.43;3.50;;;11.80;1.00;;;;;;5072543;28;20393;-66
2023/06/04 05:53:05;;;;;;;13.70;3.40;;;11.80;1.00;;;;;;5073375;28;20192;-65
2023/06/04 05:55:30;;;;;;;10.30;3.47;;;11.80;1.00;;;;;;5054055;28;20645;-65
2023/06/04 05:57:56;;;;;;;6.60;3.77;;;11.90;1.00;;;;;;5052686;28;20242;-66
2023/06/04 06:00:23;;;;;;;8.03;3.37;;;11.90;1.00;;;;;;5052494;28;20544;-65
2023/06/04 06:02:54;;;;;;;4.10;3.30;;;12.00;1.00;;;;;;5071275;28;20323;-64
2023/06/04 06:05:20;;;;;;;9.07;3.47;;;12.00;1.00;;;;;;5068094;28;20887;-65
2023/06/04 06:07:47;;;;;;;7.13;3.37;;;12.00;1.00;;;;;;5066030;28;20495;-65
2023/06/04 06:10:13;;;;;;;10.43;3.27;;;12.10;1.00;;;;;;5052217;28;20162;-66
2023/06/04 06:12:39;;;;;;;6.27;3.53;;;12.10;1.00;;;;;;5051711;28;20400;-65
2023/06/04 06:15:06;;;;;;;5.57;2.93;;;12.10;1.00;;;;;;5052721;28;20388;-65
2023/06/04 06:17:32;;;;;;;8.33;3.67;;;12.10;1.00;;;;;;5053052;28;20436;-65
2023/06/04 06:19:58;;;;;;;4.33;3.00;;;12.20;1.00;;;;;;5066983;28;20402;-65
2023/06/04 06:22:24;;;;;;;4.33;3.27;;;12.30;1.00;;;;;;5072049;28;20417;-66
2023/06/04 06:24:50;;;;;;;10.27;3.60;;;12.40;1.00;;;;;;5072965;28;20400;-66
2023/06/04 06:27:17;;;;;;;6.77;3.60;;;12.40;1.00;;;;;;5072987;28;20371;-65
2023/06/04 06:29:43;;;;;;;5.97;3.33;;;12.50;1.00;;;;;;5073047;28;20448;-65
2023/06/04 06:32:10;;;;;;;5.13;3.33;;;12.70;1.00;;;;;;5071761;28;20363;-65
2023/06/04 06:34:37;;;;;;;9.70;3.50;;;12.60;1.00;;;;;;5060675;28;20507;-71
2023/06/04 06:37:03;;;;;;;4.80;3.30;;;12.70;1.00;;;;;;5068547;28;20403;-65
2023/06/04 06:39:28;;;;;;;10.40;3.67;;;12.80;1.00;;;;;;5072569;28;20420;-65
2023/06/04 06:41:54;;;;;;;7.47;3.40;;;12.90;1.00;;;;;;5063758;28;20387;-66
2023/06/04 06:44:20;;;;;;;7.50;3.50;;;12.90;1.00;;;;;;5072964;28;20566;-64
2023/06/04 06:46:48;;;;;;;5.40;3.00;;;12.90;1.00;;;;;;5064481;28;20686;-65
2023/06/04 06:49:14;;;;;;;6.00;3.33;;;12.90;1.00;;;;;;5070221;28;20864;-66
2023/06/04 06:51:40;;;;;;;5.73;3.17;;;13.00;1.00;;;;;;5055677;28;20422;-65
2023/06/04 06:54:08;;;;;;;10.33;3.60;;;13.10;1.00;;;;;;5055665;28;20437;-65
2023/06/04 06:56:34;;;;;;;10.27;3.30;;;13.10;1.00;;;;;;5075509;28;20174;-66
2023/06/04 06:59:00;;;;;;;2.77;2.50;;;13.20;99.90;;;;;;5076711;28;20386;-67
2023/06/04 07:01:26;;;;;;;5.40;2.67;;;13.30;99.90;;;;;;5075800;28;20170;-65
2023/06/04 07:03:52;;;;;;;4.87;4.10;;;13.40;99.90;;;;;;5075345;28;20452;-66
2023/06/04 07:06:18;;;;;;;4.00;2.73;;;13.40;99.90;;;;;;5075386;28;20428;-66
2023/06/04 07:08:47;;;;;;;4.90;3.40;;;13.40;99.90;;;;;;5075805;28;20213;-70
2023/06/04 07:11:13;;;;;;;6.43;3.10;;;13.40;99.90;;;;;;5072737;28;20170;-67
2023/06/04 07:13:39;;;;;;;8.50;2.90;;;13.50;99.90;;;;;;5073957;28;20527;-66
2023/06/04 07:16:06;;;;;;;7.00;3.07;;;13.60;99.90;;;;;;5076241;28;20170;-70
2023/06/04 07:18:32;;;;;;;7.57;2.80;;;13.70;99.90;;;;;;5076193;28;20379;-69
2023/06/04 07:20:58;;;;;;;4.37;2.80;;;13.80;99.90;;;;;;5075354;28;20421;-67
2023/06/04 07:23:24;;;;;;;4.00;3.17;;;13.90;99.90;;;;;;5075778;28;20447;-66
2023/06/04 07:25:49;;;;;;;4.50;2.83;;;14.00;99.90;;;;;;5074003;28;20208;-70
2023/06/04 07:28:15;;;;;;;5.90;2.37;;;14.10;99.90;;;;;;5075462;28;20484;-70
2023/06/04 07:30:41;;;;;;;5.53;2.27;;;14.10;99.90;;;;;;5072582;28;20174;-71
2023/06/04 07:33:07;;;;;;;8.60;3.17;;;14.10;99.90;;;;;;5075998;28;20193;-70
2023/06/04 07:35:32;;;;;;;9.83;3.00;;;14.30;99.90;;;;;;5075890;28;20491;-66
2023/06/04 07:37:58;;;;;;;3.80;2.60;;;14.40;99.90;;;;;;5075954;28;20627;-69
2023/06/04 07:40:24;;;;;;;3.20;2.60;;;14.50;99.90;;;;;;5074216;28;20464;-66
2023/06/04 07:42:50;;;;;;;6.40;2.50;;;14.50;99.90;;;;;;5075742;28;20682;-66
2023/06/04 07:45:16;;;;;;;2.97;2.47;;;14.60;99.90;;;;;;5074736;28;20428;-69
2023/06/04 07:47:43;;;;;;;4.33;2.50;;;14.70;99.90;;;;;;5074419;28;20224;-66
2023/06/04 07:50:09;;;;;;;3.33;3.03;;;14.90;99.90;;;;;;5073163;28;20650;-71
2023/06/04 07:52:34;;;;;;;7.97;3.07;;;15.00;99.90;;;;;;5075582;28;20491;-70
2023/06/04 07:55:00;;;;;;;5.10;2.40;;;15.10;99.90;;;;;;5074411;28;20417;-66
2023/06/04 07:57:26;;;;;;;4.77;2.73;;;15.20;99.90;;;;;;5074279;28;20405;-71
2023/06/04 07:59:52;;;;;;;3.87;2.70;;;15.30;99.90;;;;;;5075185;28;20174;-70
2023/06/04 08:02:18;;;;;;;6.87;2.53;;;15.40;99.90;;;;;;5072662;28;20186;-66
2023/06/04 08:04:46;;;;;;;3.50;3.13;;;15.40;99.90;;;;;;5075191;28;20166;-67
2023/06/04 08:07:12;;;;;;;5.20;3.00;;;15.50;99.90;;;;;;5075149;28;20397;-69
2023/06/04 08:09:38;;;;;;;2.70;2.40;;;15.50;99.90;;;;;;5075336;28;20566;-70
2023/06/04 08:12:04;;;;;;;5.10;2.50;;;15.60;99.90;;;;;;5072286;28;20511;-70
2023/06/04 08:14:30;;;;;;;5.20;2.40;;;15.70;99.90;;;;;;5074112;28;20194;-66
2023/06/04 08:16:56;;;;;;;3.10;2.00;;;15.70;99.90;;;;;;5074281;28;20220;-71
2023/06/04 08:19:23;;;;;;;3.97;2.30;;;15.80;99.90;;;;;;5075228;28;20428;-69
2023/06/04 08:21:49;;;;;;;3.93;2.40;;;15.90;99.90;;;;;;5074319;28;20166;-71
2023/06/04 08:24:15;;;;;;;4.37;3.47;;;15.90;99.90;;;;;;5072454;28;20835;-66
2023/06/04 08:26:41;;;;;;;3.30;2.30;;;15.90;99.90;;;;;;5075084;28;20405;-67
2023/06/04 08:29:07;;;;;;;4.90;2.47;;;15.80;99.90;;;;;;5075163;28;20190;-66
2023/06/04 08:31:33;;;;;;;3.60;2.67;;;15.80;99.90;;;;;;5072714;28;20470;-70
2023/06/04 08:33:59;;;;;;;2.17;1.97;;;15.90;99.90;;;;;;5074847;28;20485;-67
2023/06/04 08:36:25;;;;;;;4.23;2.33;;;16.00;99.90;;;;;;5073774;28;20245;-70
2023/06/04 08:38:52;;;;;;;8.83;2.27;;;16.10;99.90;;;;;;5074162;28;20163;-70
2023/06/04 08:41:39;;;;;;;6.70;2.63;;;16.20;99.90;;;;;;5053275;28;20379;-67
2023/06/04 08:44:06;;;;;;;5.00;2.30;;;16.40;99.90;;;;;;5054550;28;20415;-66
2023/06/04 08:46:39;;;;;;;2.50;2.10;;;16.50;99.90;;;;;;5054711;28;20409;-70
2023/06/04 08:49:06;;;;;;;6.07;3.10;;;16.60;99.90;;;;;;5054763;28;20441;-70
2023/06/04 08:51:36;;;;;;;3.40;1.90;;;16.80;99.90;;;;;;5053702;28;20393;-70
2023/06/04 08:54:07;;;;;;;2.53;2.10;;;17.00;99.90;;;;;;5065444;28;20527;-66
2023/06/04 08:56:33;;;;;;;5.47;2.27;;;17.20;99.90;;;;;;5074504;28;20389;-68
2023/06/04 08:59:03;;;;;;;5.57;2.63;;;17.40;99.90;;;;;;5074193;28;20423;-69
2023/06/04 09:01:34;;;;;;;2.17;1.90;;;17.60;99.90;;;;;;5072115;28;20447;-67
2023/06/04 09:04:03;;;;;;;4.40;2.40;;;17.70;99.90;;;;;;5072540;28;20428;-66
2023/06/04 09:06:29;;;;;;;2.93;1.53;;;18.00;99.90;;;;;;5074499;28;20940;-66
2023/06/04 09:09:00;;;;;;;2.83;2.20;;;18.10;99.90;;;;;;5071998;28;20758;-70
2023/06/04 09:11:35;;;;;;;2.57;1.70;;;18.30;99.90;;;;;;5073289;28;20396;-66
2023/06/04 09:14:07;;;;;;;4.30;2.17;;;18.40;99.90;;;;;;5073995;28;20416;-71
2023/06/04 09:16:41;;;;;;;6.50;2.50;;;18.40;99.90;;;;;;5073837;28;20819;-68
2023/06/04 09:19:07;;;;;;;3.17;2.00;;;18.60;99.90;;;;;;5073894;28;20400;-71
2023/06/04 09:21:33;;;;;;;6.57;2.10;;;18.80;99.90;;;;;;5071921;28;20415;-70
2023/06/04 09:23:59;;;;;;;2.20;1.80;;;19.00;99.90;;;;;;5072788;28;20585;-70
2023/06/04 09:26:25;;;;;;;4.00;2.40;;;19.20;99.90;;;;;;5073983;28;20166;-71
2023/06/04 09:28:55;;;;;;;4.63;2.60;;;19.30;99.90;;;;;;5069676;28;20204;-68
2023/06/04 09:31:22;;;;;;;3.77;1.80;;;19.30;99.90;;;;;;5072926;28;20546;-67
2023/06/04 09:33:49;;;;;;;2.60;1.70;;;19.60;99.90;;;;;;5073776;28;20417;-66
2023/06/04 09:36:15;;;;;;;3.47;1.97;;;19.90;99.90;;;;;;5073249;28;20454;-71
2023/06/04 09:38:41;;;;;;;4.80;2.60;;;20.00;99.90;;;;;;5073473;28;20434;-71
2023/06/04 09:41:14;;;;;;;3.10;2.23;;;20.00;99.90;;;;;;5072991;28;20404;-67
2023/06/04 09:43:40;;;;;;;5.03;2.17;;;20.30;99.90;;;;;;5071677;28;20213;-66
2023/06/04 09:46:14;;;;;;;4.20;1.97;;;20.50;99.90;;;;;;5073439;28;20411;-67
2023/06/04 09:48:40;;;;;;;2.23;1.57;;;20.80;99.90;;;;;;5073412;28;20455;-70
2023/06/04 09:51:11;;;;;;;4.03;2.13;;;21.00;99.90;;;;;;5072799;28;20396;-66
2023/06/04 09:53:39;;;;;;;6.93;2.07;;;21.30;99.90;;;;;;5073431;28;20459;-67
2023/06/04 09:56:10;;;;;;;3.80;2.00;;;21.70;99.90;;;;;;5072836;28;20438;-72
2023/06/04 09:58:37;;;;;;;3.27;1.80;;;22.00;99.90;;;;;;5072369;28;20430;-68
2023/06/04 10:01:04;;;;;;;4.20;2.20;;;22.30;99.90;;;;;;5071768;28;20940;-68
2023/06/04 10:03:32;;;;;;;4.10;1.70;;;22.50;99.90;;;;;;5071904;28;20523;-70
2023/06/04 10:06:00;;;;;;;3.00;1.63;;;22.30;99.90;;;;;;5073264;28;20535;-68
2023/06/04 10:08:27;;;;;;;3.33;1.90;;;22.50;99.90;;;;;;5073154;28;20867;-67
2023/06/04 10:10:59;;;;;;;2.43;1.70;;;22.60;99.90;;;;;;5071429;28;20913;-68
2023/06/04 10:13:28;;;;;;;6.27;2.17;;;22.70;99.90;;;;;;5072918;28;20420;-72
2023/06/04 10:15:58;;;;;;;3.10;1.87;;;22.90;99.90;;;;;;5071280;28;20416;-70
2023/06/04 10:18:25;;;;;;;3.73;1.93;;;23.00;99.90;;;;;;5073146;28;20413;-70
2023/06/04 10:20:54;;;;;;;3.00;2.10;;;23.20;99.90;;;;;;5072144;28;20507;-71
2023/06/04 10:23:21;;;;;;;3.30;2.03;;;23.50;99.90;;;;;;5072870;28;20455;-70
2023/06/04 10:25:50;;;;;;;3.60;2.00;;;23.60;99.90;;;;;;5073215;28;20400;-68
2023/06/04 10:28:17;;;;;;;3.73;2.07;;;23.90;99.90;;;;;;5072964;28;20447;-72
2023/06/04 10:30:43;;;;;;;3.90;1.47;;;24.30;99.90;;;;;;5071215;28;20428;-71
2023/06/04 10:33:09;;;;;;;2.90;1.70;;;24.30;99.90;;;;;;5073007;28;20427;-72
2023/06/04 10:35:36;;;;;;;4.67;1.63;;;24.30;99.90;;;;;;5072433;28;20602;-69
2023/06/04 10:38:07;;;;;;;1.63;1.53;;;24.40;99.90;;;;;;5072875;28;20174;-68
2023/06/04 10:40:33;;;;;;;3.17;2.00;;;24.60;99.90;;;;;;5072026;28;20900;-72
2023/06/04 10:43:05;;;;;;;3.40;1.57;;;24.50;99.90;;;;;;5072891;28;20456;-69
2023/06/04 10:45:31;;;;;;;6.50;2.10;;;24.30;99.90;;;;;;5070181;28;20447;-69
2023/06/04 10:48:00;;;;;;;3.37;2.00;;;24.20;99.90;;;;;;5072665;28;20405;-72
2023/06/04 10:50:26;;;;;;;2.77;1.90;;;24.20;99.90;;;;;;5071606;28;20694;-71
2023/06/04 10:52:54;;;;;;;5.37;2.13;;;24.20;99.90;;;;;;5071348;28;20428;-69
2023/06/04 10:55:20;;;;;;;3.13;1.50;;;24.40;99.90;;;;;;5072791;28;20162;-70
2023/06/04 10:58:01;;;;;;;2.60;2.40;;;24.60;99.90;;;;;;5071828;28;20401;-72
2023/06/04 11:00:46;;;;;;;8.30;2.70;;;24.50;99.90;;;;;;5072016;28;20565;-72
2023/06/04 11:03:12;;;;;;;3.43;2.10;;;24.40;99.90;;;;;;5072642;28;20526;-69
2023/06/04 11:05:39;;;;;;;3.40;1.40;;;24.80;99.90;;;;;;5072709;28;20403;-69
2023/06/04 11:08:06;;;;;;;3.00;1.77;;;24.80;99.90;;;;;;5071822;28;20547;-69
2023/06/04 11:10:33;;;;;;;4.97;2.27;;;25.10;99.90;;;;;;5071212;28;20483;-69
2023/06/04 11:13:00;;;;;;;9.00;2.53;;;25.20;99.90;;;;;;5072473;28;20412;-70
2023/06/04 11:15:25;;;;;;;2.20;2.00;;;25.20;99.90;;;;;;5071431;28;20428;-73
2023/06/04 11:17:51;;;;;;;5.73;2.57;;;25.30;99.90;;;;;;5071343;28;20415;-72
2023/06/04 11:20:19;;;;;;;1.57;1.47;;;25.80;99.90;;;;;;5070477;28;20170;-73
2023/06/04 11:23:03;;;;;;;1.87;1.57;;;25.90;99.90;;;;;;5071642;28;20440;-71
2023/06/04 11:25:30;;;;;;;5.60;2.40;;;25.90;99.90;;;;;;5071149;28;20482;-69
2023/06/04 11:27:57;;;;;;;5.13;2.20;;;25.80;99.90;;;;;;5076062;28;20396;-72
2023/06/04 11:30:24;;;;;;;3.07;2.17;;;25.70;99.90;;;;;;5074897;28;20483;-73
2023/06/04 11:32:59;;;;;;;3.63;2.03;;;25.80;99.90;;;;;;5076393;28;20413;-73
2023/06/04 11:35:24;;;;;;;3.77;1.83;;;26.20;99.90;;;;;;5074612;28;20419;-72
2023/06/04 11:37:58;;;;;;;3.50;1.93;;;26.60;99.90;;;;;;5076266;28;20430;-73
2023/06/04 11:40:26;;;;;;;3.23;2.00;;;26.70;99.90;;;;;;5075173;28;20190;-70
2023/06/04 11:42:52;;;;;;;5.33;2.20;;;26.60;99.90;;;;;;5075868;28;20413;-73
2023/06/04 11:45:20;;;;;;;5.53;2.00;;;27.00;99.90;;;;;;5075683;28;20436;-68
2023/06/04 11:47:51;;;;;;;3.60;2.37;;;27.20;99.90;;;;;;5074162;28;20428;-73
2023/06/04 11:50:17;;;;;;;2.80;1.67;;;27.10;99.90;;;;;;5074732;28;20781;-73
2023/06/04 11:52:43;;;;;;;2.07;1.83;;;27.30;99.90;;;;;;5075679;28;20425;-69
2023/06/04 11:55:10;;;;;;;4.97;2.23;;;27.50;99.90;;;;;;5075697;28;20208;-73
2023/06/04 11:57:40;;;;;;;3.83;2.00;;;27.60;99.90;;;;;;5075650;28;20988;-73
2023/06/04 12:00:09;;;;;;;5.33;1.90;;;27.50;99.90;;;;;;5073904;28;20794;-76
2023/06/04 12:02:38;;;;;;;3.60;1.97;;;27.70;99.90;;;;;;5075576;28;20397;-71
2023/06/04 12:05:14;;;;;;;6.03;2.03;;;27.70;99.90;;;;;;5075610;28;20750;-72
2023/06/04 12:07:41;;;;;;;3.03;2.03;;;28.00;99.90;;;;;;5074971;28;20411;-72
2023/06/04 12:10:08;;;;;;;5.03;2.13;;;28.20;99.90;;;;;;5074462;28;20444;-75
2023/06/04 12:12:35;;;;;;;2.13;1.67;;;28.60;99.90;;;;;;5075367;28;20753;-73
2023/06/04 12:15:01;;;;;;;2.40;2.07;;;28.80;99.90;;;;;;5074722;28;20511;-75
2023/06/04 12:17:26;;;;;;;2.83;1.80;;;29.10;99.90;;;;;;5075226;28;20527;-74
2023/06/04 12:19:52;;;;;;;3.50;2.37;;;29.20;99.90;;;;;;5075093;28;20750;-73
2023/06/04 12:22:19;;;;;;;2.93;1.77;;;28.80;99.90;;;;;;5074663;28;20167;-73
2023/06/04 12:25:00;;;;;;;3.20;1.73;;;28.60;99.90;;;;;;5073887;28;20175;-73
2023/06/04 12:27:26;;;;;;;2.33;1.97;;;28.80;99.90;;;;;;5075133;28;20388;-70
2023/06/04 12:30:03;;;;;;;4.57;3.30;;;29.00;99.90;;;;;;5074069;28;20460;-70
2023/06/04 12:32:29;;;;;;;3.87;2.20;;;29.00;99.90;;;;;;5074709;28;20424;-73
2023/06/04 12:34:56;;;;;;;4.70;2.60;;;28.60;99.90;;;;;;5075002;28;20393;-73
2023/06/04 12:37:27;;;;;;;5.10;2.17;;;28.60;99.90;;;;;;5073650;28;20424;-70
2023/06/04 12:39:54;;;;;;;1.90;1.77;;;28.40;99.90;;;;;;5074751;28;20405;-75
2023/06/04 12:42:20;;;;;;;5.20;2.50;;;28.30;99.90;;;;;;5072791;28;20409;-75
2023/06/04 12:44:47;;;;;;;3.30;1.80;;;28.10;99.90;;;;;;5073045;28;20937;-68
2023/06/04 12:47:12;;;;;;;2.83;2.10;;;27.70;99.90;;;;;;5074780;28;20777;-75
2023/06/04 12:49:38;;;;;;;4.77;2.13;;;27.30;99.90;;;;;;5074594;28;20455;-71
2023/06/04 12:52:05;;;;;;;4.10;1.90;;;27.00;99.90;;;;;;5073715;28;20189;-69
2023/06/04 12:54:31;;;;;;;5.07;3.00;;;26.60;99.90;;;;;;5074587;28;20178;-70